createdAt,value
2017-11-17T00:00:04.395Z,0
2017-11-17T00:01:04.334Z,0
2017-11-17T00:02:04.046Z,0
2017-11-17T00:03:04.025Z,0
2017-11-17T00:04:03.740Z,0
2017-11-17T00:05:03.990Z,0
2017-11-17T00:06:03.973Z,0
2017-11-17T00:07:03.957Z,0
2017-11-17T00:08:03.684Z,0
2017-11-17T00:09:04.191Z,0
2017-11-17T00:10:03.933Z,0
2017-11-17T00:11:03.618Z,0
2017-11-17T00:12:03.326Z,0
2017-11-17T00:13:03.316Z,0
2017-11-17T00:14:03.844Z,0
2017-11-17T00:15:03.823Z,0
2017-11-17T00:16:03.534Z,0
2017-11-17T00:17:03.514Z,0
2017-11-17T00:18:03.544Z,0
2017-11-17T00:19:04.030Z,0
2017-11-17T00:20:03.456Z,0
2017-11-17T00:21:03.707Z,0
2017-11-17T00:22:03.691Z,0
2017-11-17T00:23:03.450Z,0
2017-11-17T00:24:03.656Z,0
2017-11-17T00:25:03.105Z,0
2017-11-17T00:26:03.626Z,0
2017-11-17T00:27:03.880Z,0
2017-11-17T00:28:03.366Z,0
2017-11-17T00:29:03.301Z,0
2017-11-17T00:30:03.824Z,0
2017-11-17T00:31:03.264Z,0
2017-11-17T00:32:03.246Z,0
2017-11-17T00:33:03.496Z,0
2017-11-17T00:34:03.483Z,0
2017-11-17T00:35:03.464Z,0
2017-11-17T00:36:03.179Z,0
2017-11-17T00:37:03.429Z,0
2017-11-17T00:38:03.140Z,0
2017-11-17T00:39:02.851Z,0
2017-11-17T00:40:03.384Z,0
2017-11-17T00:41:03.372Z,0
2017-11-17T00:42:03.607Z,0
2017-11-17T00:43:03.657Z,0
2017-11-17T00:44:03.039Z,0
2017-11-17T00:45:03.013Z,0
2017-11-17T00:46:02.996Z,0
2017-11-17T00:47:03.536Z,0
2017-11-17T00:48:02.963Z,0
2017-11-17T00:49:02.947Z,0
2017-11-17T00:50:02.923Z,0
2017-11-17T00:51:03.382Z,0
2017-11-17T00:52:03.163Z,0
2017-11-17T00:53:02.877Z,0
2017-11-17T00:54:03.182Z,0
2017-11-17T00:55:03.419Z,0
2017-11-17T00:56:02.834Z,0
2017-11-17T00:57:02.538Z,0
2017-11-17T00:58:03.067Z,0
2017-11-17T00:59:03.046Z,0
2017-11-17T01:00:02.754Z,0
2017-11-17T01:01:03.015Z,0
2017-11-17T01:02:02.722Z,0
2017-11-17T01:03:02.452Z,0
2017-11-17T01:04:03.224Z,0
2017-11-17T01:05:02.933Z,0
2017-11-17T01:06:02.927Z,0
2017-11-17T01:07:02.904Z,0
2017-11-17T01:08:02.340Z,0
2017-11-17T01:09:02.864Z,0
2017-11-17T01:10:03.120Z,0
2017-11-17T01:11:03.105Z,0
2017-11-17T01:12:03.143Z,0
2017-11-17T01:13:03.074Z,0
2017-11-17T01:14:03.047Z,0
2017-11-17T01:15:02.500Z,0
2017-11-17T01:16:03.005Z,0
2017-11-17T01:17:03.009Z,0
2017-11-17T01:18:02.172Z,0
2017-11-17T01:19:02.746Z,0
2017-11-17T01:20:02.680Z,0
2017-11-17T01:21:02.666Z,0
2017-11-17T01:22:02.635Z,0
2017-11-17T01:23:02.374Z,0
2017-11-17T01:24:02.627Z,0
2017-11-17T01:25:02.593Z,0
2017-11-17T01:26:02.572Z,0
2017-11-17T01:27:02.824Z,0
2017-11-17T01:28:02.267Z,0
2017-11-17T01:29:02.298Z,0
2017-11-17T01:30:02.231Z,0
2017-11-17T01:31:02.540Z,0
2017-11-17T01:32:02.465Z,0
2017-11-17T01:33:02.717Z,0
2017-11-17T01:34:02.704Z,0
2017-11-17T01:35:02.456Z,0
2017-11-17T01:36:02.401Z,0
2017-11-17T01:37:02.383Z,0
2017-11-17T01:38:02.398Z,0
2017-11-17T01:39:02.671Z,0
2017-11-17T01:40:02.062Z,0
2017-11-17T01:41:02.309Z,0
2017-11-17T01:42:02.297Z,0
2017-11-17T01:43:01.735Z,0
2017-11-17T01:44:02.532Z,0
2017-11-17T01:45:02.247Z,0
2017-11-17T01:46:02.501Z,0
2017-11-17T01:47:02.206Z,0
2017-11-17T01:48:01.920Z,0
2017-11-17T01:49:02.177Z,0
2017-11-17T01:50:01.891Z,0
2017-11-17T01:51:02.450Z,0
2017-11-17T01:52:01.849Z,0
2017-11-17T01:53:01.561Z,0
2017-11-17T01:54:02.092Z,0
2017-11-17T01:55:02.073Z,0
2017-11-17T01:56:02.326Z,0
2017-11-17T01:57:01.493Z,0
2017-11-17T01:58:02.021Z,0
2017-11-17T01:59:02.214Z,0
2017-11-17T02:00:01.710Z,0
2017-11-17T02:01:01.427Z,0
2017-11-17T02:02:01.685Z,0
2017-11-17T02:03:02.200Z,0
2017-11-17T02:04:01.380Z,0
2017-11-17T02:05:01.963Z,0
2017-11-17T02:06:01.610Z,0
2017-11-17T02:07:01.862Z,0
2017-11-17T02:08:02.115Z,0
2017-11-17T02:09:01.839Z,0
2017-11-17T02:10:01.815Z,0
2017-11-17T02:11:02.100Z,0
2017-11-17T02:12:01.779Z,0
2017-11-17T02:13:02.037Z,0
2017-11-17T02:14:01.472Z,0
2017-11-17T02:15:01.519Z,0
2017-11-17T02:16:01.711Z,0
2017-11-17T02:17:01.691Z,0
2017-11-17T02:18:01.403Z,0
2017-11-17T02:19:01.936Z,0
2017-11-17T02:20:01.640Z,0
2017-11-17T02:21:01.618Z,0
2017-11-17T02:22:01.602Z,0
2017-11-17T02:23:01.314Z,0
2017-11-17T02:24:01.839Z,0
2017-11-17T02:25:01.833Z,0
2017-11-17T02:26:01.533Z,0
2017-11-17T02:27:01.516Z,0
2017-11-17T02:28:01.514Z,0
2017-11-17T02:29:01.491Z,0
2017-11-17T02:30:01.204Z,0
2017-11-17T02:31:01.738Z,0
2017-11-17T02:32:01.162Z,0
2017-11-17T02:33:01.149Z,0
2017-11-17T02:34:01.400Z,0
2017-11-17T02:35:01.110Z,0
2017-11-17T02:36:01.097Z,0
2017-11-17T02:37:01.635Z,0
2017-11-17T02:38:01.342Z,0
2017-11-17T02:39:01.311Z,0
2017-11-17T02:40:01.295Z,0
2017-11-17T02:41:01.338Z,0
2017-11-17T02:42:00.999Z,0
2017-11-17T02:43:01.250Z,0
2017-11-17T02:44:01.233Z,0
2017-11-17T02:45:01.223Z,0
2017-11-17T02:46:00.950Z,0
2017-11-17T02:47:01.225Z,0
2017-11-17T02:48:01.168Z,0
2017-11-17T02:49:01.423Z,0
2017-11-17T02:50:01.130Z,0
2017-11-17T02:51:01.112Z,0
2017-11-17T02:52:00.829Z,0
2017-11-17T02:53:01.072Z,0
2017-11-17T02:54:01.074Z,0
2017-11-17T02:55:00.776Z,0
2017-11-17T02:56:00.802Z,0
2017-11-17T02:57:01.266Z,0
2017-11-17T02:58:00.738Z,0
2017-11-17T02:59:00.974Z,0
2017-11-17T03:00:00.682Z,0
2017-11-17T03:01:01.210Z,0
2017-11-17T03:02:00.656Z,0
2017-11-17T03:03:00.634Z,0
2017-11-17T03:04:01.166Z,0
2017-11-17T03:05:00.876Z,0
2017-11-17T03:06:00.860Z,0
2017-11-17T03:07:01.105Z,0
2017-11-17T03:08:01.081Z,0
2017-11-17T03:09:00.261Z,0
2017-11-17T03:10:00.781Z,0
2017-11-17T03:11:00.547Z,0
2017-11-17T03:12:00.745Z,0
2017-11-17T03:13:00.729Z,0
2017-11-17T03:14:00.984Z,0
2017-11-17T03:15:00.421Z,0
2017-11-17T03:16:00.955Z,0
2017-11-17T03:17:00.390Z,0
2017-11-17T03:18:00.406Z,0
2017-11-17T03:19:00.622Z,0
2017-11-17T03:20:00.613Z,0
2017-11-17T03:21:00.055Z,0
2017-11-17T03:22:00.570Z,0
2017-11-17T03:23:00.558Z,0
2017-11-17T03:24:00.273Z,0
2017-11-17T03:25:00.526Z,0
2017-11-17T03:26:00.770Z,0
2017-11-17T03:27:00.221Z,0
2017-11-17T03:28:00.741Z,0
2017-11-17T03:29:00.457Z,0
2017-11-17T03:30:00.445Z,0
2017-11-17T03:31:00.727Z,0
2017-11-17T03:32:00.134Z,0
2017-11-17T03:33:00.678Z,0
2017-11-17T03:34:00.089Z,0
2017-11-17T03:35:00.346Z,0
2017-11-17T03:36:00.603Z,0
2017-11-17T03:37:00.364Z,0
2017-11-17T03:38:00.030Z,0
2017-11-17T03:39:00.280Z,0
2017-11-17T03:39:59.996Z,0
2017-11-17T03:40:59.967Z,0
2017-11-17T03:41:59.954Z,0
2017-11-17T03:43:00.484Z,0
2017-11-17T03:44:00.186Z,0
2017-11-17T03:44:59.902Z,0
2017-11-17T03:46:00.156Z,0
2017-11-17T03:46:59.871Z,0
2017-11-17T03:48:00.388Z,0
2017-11-17T03:49:00.120Z,0
2017-11-17T03:50:00.081Z,0
2017-11-17T03:51:00.063Z,0
2017-11-17T03:51:59.829Z,0
2017-11-17T03:53:00.040Z,0
2017-11-17T03:53:59.743Z,0
2017-11-17T03:54:59.461Z,0
2017-11-17T03:55:59.442Z,0
2017-11-17T03:56:59.956Z,0
2017-11-17T03:58:00.212Z,0
2017-11-17T03:58:59.853Z,0
2017-11-17T03:59:59.634Z,0
2017-11-17T04:00:59.892Z,0
2017-11-17T04:01:59.922Z,0
2017-11-17T04:02:59.854Z,0
2017-11-17T04:03:59.567Z,0
2017-11-17T04:04:59.830Z,0
2017-11-17T04:05:59.801Z,0
2017-11-17T04:06:59.781Z,0
2017-11-17T04:07:59.498Z,0
2017-11-17T04:08:59.753Z,0
2017-11-17T04:09:59.730Z,0
2017-11-17T04:10:59.441Z,0
2017-11-17T04:11:59.963Z,0
2017-11-17T04:12:59.675Z,0
2017-11-17T04:13:59.975Z,0
2017-11-17T04:14:59.641Z,0
2017-11-17T04:15:59.904Z,0
2017-11-17T04:16:59.621Z,0
2017-11-17T04:17:59.322Z,0
2017-11-17T04:18:59.295Z,0
2017-11-17T04:19:59.552Z,0
2017-11-17T04:20:59.290Z,0
2017-11-17T04:21:59.261Z,0
2017-11-17T04:22:59.502Z,0
2017-11-17T04:23:59.536Z,0
2017-11-17T04:24:58.929Z,0
2017-11-17T04:25:59.451Z,0
2017-11-17T04:26:59.426Z,0
2017-11-17T04:27:59.406Z,0
2017-11-17T04:28:59.384Z,0
2017-11-17T04:29:59.130Z,0
2017-11-17T04:30:59.355Z,0
2017-11-17T04:31:59.340Z,0
2017-11-17T04:32:58.780Z,0
2017-11-17T04:33:59.565Z,0
2017-11-17T04:34:59.285Z,0
2017-11-17T04:35:59.267Z,0
2017-11-17T04:36:59.247Z,0
2017-11-17T04:37:59.230Z,0
2017-11-17T04:38:58.945Z,0
2017-11-17T04:39:59.198Z,0
2017-11-17T04:40:59.441Z,0
2017-11-17T04:41:59.147Z,0
2017-11-17T04:42:58.860Z,0
2017-11-17T04:43:59.119Z,0
2017-11-17T04:44:58.827Z,0
2017-11-17T04:45:59.346Z,0
2017-11-17T04:46:58.790Z,0
2017-11-17T04:47:58.773Z,0
2017-11-17T04:48:59.343Z,0
2017-11-17T04:49:59.280Z,0
2017-11-17T04:50:58.737Z,0
2017-11-17T04:51:58.979Z,0
2017-11-17T04:52:58.951Z,0
2017-11-17T04:53:58.661Z,0
2017-11-17T04:54:58.646Z,0
2017-11-17T04:55:59.176Z,0
2017-11-17T04:56:58.601Z,0
2017-11-17T04:57:59.222Z,0
2017-11-17T04:58:58.562Z,0
2017-11-17T04:59:58.829Z,0
2017-11-17T05:00:58.828Z,0
2017-11-17T05:01:58.245Z,0
2017-11-17T05:02:58.762Z,0
2017-11-17T05:03:58.753Z,0
2017-11-17T05:04:58.451Z,0
2017-11-17T05:05:58.729Z,0
2017-11-17T05:06:58.965Z,0
2017-11-17T05:07:58.396Z,0
2017-11-17T05:08:58.109Z,0
2017-11-17T05:09:58.641Z,0
2017-11-17T05:10:58.886Z,0
2017-11-17T05:11:58.893Z,0
2017-11-17T05:12:58.306Z,0
2017-11-17T05:13:58.821Z,0
2017-11-17T05:14:58.544Z,0
2017-11-17T05:15:58.251Z,0
2017-11-17T05:16:58.223Z,0
2017-11-17T05:17:58.743Z,0
2017-11-17T05:18:58.456Z,0
2017-11-17T05:19:58.449Z,0
2017-11-17T05:20:58.433Z,0
2017-11-17T05:21:58.133Z,0
2017-11-17T05:22:58.653Z,0
2017-11-17T05:23:58.415Z,0
2017-11-17T05:24:58.630Z,0
2017-11-17T05:25:58.332Z,0
2017-11-17T05:26:58.305Z,0
2017-11-17T05:27:58.021Z,0
2017-11-17T05:28:58.283Z,0
2017-11-17T05:29:58.522Z,0
2017-11-17T05:30:58.231Z,0
2017-11-17T05:31:57.945Z,0
2017-11-17T05:32:58.198Z,0
2017-11-17T05:33:58.220Z,0
2017-11-17T05:34:57.881Z,0
2017-11-17T05:35:57.864Z,0
2017-11-17T05:36:58.386Z,0
2017-11-17T05:37:58.093Z,0
2017-11-17T05:38:58.075Z,0
2017-11-17T05:39:58.061Z,0
2017-11-17T05:40:58.041Z,0
2017-11-17T05:41:57.754Z,0
2017-11-17T05:42:58.039Z,0
2017-11-17T05:43:58.248Z,0
2017-11-17T05:44:57.698Z,0
2017-11-17T05:45:57.411Z,0
2017-11-17T05:46:58.216Z,0
2017-11-17T05:47:58.176Z,0
2017-11-17T05:48:58.202Z,0
2017-11-17T05:49:58.147Z,0
2017-11-17T05:50:57.850Z,0
2017-11-17T05:51:58.102Z,0
2017-11-17T05:52:58.081Z,0
2017-11-17T05:53:57.520Z,0
2017-11-17T05:54:57.494Z,0
2017-11-17T05:55:58.042Z,0
2017-11-17T05:56:57.728Z,0
2017-11-17T05:57:57.446Z,0
2017-11-17T05:58:57.627Z,0
2017-11-17T05:59:57.404Z,0
2017-11-17T06:00:57.379Z,0
2017-11-17T06:01:57.629Z,0
2017-11-17T06:02:57.881Z,0
2017-11-17T06:03:57.316Z,0
2017-11-17T06:04:57.585Z,0
2017-11-17T06:05:57.302Z,0
2017-11-17T06:06:57.265Z,0
2017-11-17T06:07:57.520Z,0
2017-11-17T06:08:57.501Z,0
2017-11-17T06:09:57.757Z,0
2017-11-17T06:10:57.190Z,0
2017-11-17T06:11:57.440Z,0
2017-11-17T06:12:57.444Z,0
2017-11-17T06:13:57.402Z,0
2017-11-17T06:14:57.114Z,0
2017-11-17T06:15:56.812Z,0
2017-11-17T06:16:57.087Z,0
2017-11-17T06:17:57.044Z,0
2017-11-17T06:18:57.027Z,0
2017-11-17T06:19:57.278Z,0
2017-11-17T06:20:56.986Z,4
2017-11-17T06:21:57.508Z,4
2017-11-17T06:22:56.948Z,4
2017-11-17T06:23:57.200Z,0
2017-11-17T06:24:56.644Z,4
2017-11-17T06:25:57.162Z,4
2017-11-17T06:26:56.867Z,4
2017-11-17T06:27:57.116Z,8
2017-11-17T06:28:57.368Z,8
2017-11-17T06:29:57.348Z,8
2017-11-17T06:30:57.057Z,12
2017-11-17T06:31:57.048Z,12
2017-11-17T06:32:57.026Z,16
2017-11-17T06:33:57.000Z,20
2017-11-17T06:34:56.445Z,24
2017-11-17T06:35:57.228Z,28
2017-11-17T06:36:56.938Z,28
2017-11-17T06:37:56.918Z,32
2017-11-17T06:38:56.631Z,40
2017-11-17T06:39:56.605Z,48
2017-11-17T06:40:57.124Z,56
2017-11-17T06:41:56.300Z,64
2017-11-17T06:42:56.829Z,68
2017-11-17T06:43:57.081Z,76
2017-11-17T06:44:56.285Z,88
2017-11-17T06:45:56.225Z,100
2017-11-17T06:46:56.467Z,112
2017-11-17T06:47:56.441Z,124
2017-11-17T06:48:56.704Z,136
2017-11-17T06:49:56.676Z,148
2017-11-17T06:50:56.666Z,160
2017-11-17T06:51:56.364Z,176
2017-11-17T06:52:56.076Z,192
2017-11-17T06:53:56.601Z,208
2017-11-17T06:54:56.583Z,224
2017-11-17T06:55:56.281Z,240
2017-11-17T06:56:56.008Z,252
2017-11-17T06:57:56.525Z,272
2017-11-17T06:58:56.223Z,288
2017-11-17T06:59:56.468Z,308
2017-11-17T07:00:56.186Z,328
2017-11-17T07:01:55.889Z,344
2017-11-17T07:02:56.681Z,364
2017-11-17T07:03:56.661Z,384
2017-11-17T07:04:56.363Z,396
2017-11-17T07:05:56.346Z,424
2017-11-17T07:06:56.061Z,440
2017-11-17T07:07:55.764Z,460
2017-11-17T07:08:56.301Z,480
2017-11-17T07:09:55.996Z,504
2017-11-17T07:10:55.708Z,520
2017-11-17T07:11:56.493Z,540
2017-11-17T07:12:55.945Z,568
2017-11-17T07:13:56.186Z,588
2017-11-17T07:14:55.898Z,612
2017-11-17T07:15:55.871Z,636
2017-11-17T07:16:55.854Z,656
2017-11-17T07:17:55.831Z,676
2017-11-17T07:18:56.084Z,696
2017-11-17T07:19:55.524Z,720
2017-11-17T07:20:56.089Z,748
2017-11-17T07:21:56.024Z,772
2017-11-17T07:22:55.733Z,792
2017-11-17T07:23:55.718Z,812
2017-11-17T07:24:55.712Z,836
2017-11-17T07:25:55.945Z,864
2017-11-17T07:26:55.927Z,884
2017-11-17T07:27:56.173Z,900
2017-11-17T07:28:55.883Z,928
2017-11-17T07:29:56.124Z,952
2017-11-17T07:30:56.117Z,976
2017-11-17T07:31:56.089Z,1012
2017-11-17T07:32:55.795Z,1044
2017-11-17T07:33:55.509Z,1048
2017-11-17T07:34:55.755Z,1060
2017-11-17T07:35:55.784Z,1072
2017-11-17T07:36:55.718Z,1092
2017-11-17T07:37:55.690Z,1112
2017-11-17T07:38:55.141Z,1132
2017-11-17T07:39:55.385Z,1152
2017-11-17T07:40:55.641Z,1184
2017-11-17T07:41:55.627Z,1200
2017-11-17T07:42:55.591Z,1224
2017-11-17T07:43:55.847Z,1252
2017-11-17T07:44:55.557Z,1272
2017-11-17T07:45:55.806Z,1308
2017-11-17T07:46:55.248Z,1336
2017-11-17T07:47:55.218Z,1368
2017-11-17T07:48:54.938Z,1388
2017-11-17T07:49:55.180Z,1424
2017-11-17T07:50:55.446Z,1492
2017-11-17T07:51:54.865Z,1604
2017-11-17T07:52:54.850Z,1656
2017-11-17T07:53:54.828Z,1696
2017-11-17T07:54:55.343Z,1728
2017-11-17T07:55:55.062Z,1880
2017-11-17T07:56:55.088Z,1900
2017-11-17T07:57:55.292Z,1956
2017-11-17T07:58:55.746Z,1860
2017-11-17T07:59:54.715Z,1984
2017-11-17T08:00:55.234Z,1856
2017-11-17T08:01:55.206Z,2012
2017-11-17T08:02:55.456Z,2084
2017-11-17T08:03:54.889Z,2300
2017-11-17T08:04:55.418Z,2032
2017-11-17T08:05:55.129Z,2240
2017-11-17T08:06:54.573Z,2052
2017-11-17T08:07:55.084Z,2208
2017-11-17T08:08:55.060Z,2228
2017-11-17T08:09:55.319Z,2248
2017-11-17T08:10:55.028Z,2292
2017-11-17T08:11:55.265Z,2340
2017-11-17T08:12:54.982Z,2440
2017-11-17T08:13:54.964Z,2708
2017-11-17T08:14:54.667Z,2568
2017-11-17T08:15:54.649Z,2984
2017-11-17T08:16:54.901Z,2908
2017-11-17T08:17:54.607Z,2988
2017-11-17T08:18:54.316Z,2744
2017-11-17T08:19:54.842Z,2772
2017-11-17T08:20:55.093Z,2996
2017-11-17T08:21:54.797Z,2528
2017-11-17T08:22:54.518Z,2524
2017-11-17T08:23:54.755Z,3040
2017-11-17T08:24:54.739Z,2564
2017-11-17T08:25:54.446Z,2436
2017-11-17T08:26:54.702Z,2508
2017-11-17T08:27:54.426Z,2440
2017-11-17T08:28:54.930Z,2464
2017-11-17T08:29:54.637Z,2428
2017-11-17T08:30:54.620Z,2456
2017-11-17T08:31:54.609Z,2440
2017-11-17T08:32:54.314Z,2492
2017-11-17T08:33:54.836Z,2476
2017-11-17T08:34:54.536Z,2436
2017-11-17T08:35:54.253Z,2472
2017-11-17T08:36:54.778Z,2504
2017-11-17T08:37:54.228Z,2476
2017-11-17T08:38:54.187Z,2524
2017-11-17T08:39:54.184Z,2508
2017-11-17T08:40:54.700Z,2524
2017-11-17T08:41:53.862Z,2528
2017-11-17T08:42:54.374Z,2540
2017-11-17T08:43:54.370Z,2520
2017-11-17T08:44:54.076Z,2520
2017-11-17T08:45:54.055Z,2560
2017-11-17T08:46:54.571Z,2560
2017-11-17T08:47:53.738Z,2540
2017-11-17T08:48:54.016Z,2584
2017-11-17T08:49:54.251Z,2576
2017-11-17T08:50:54.233Z,2572
2017-11-17T08:51:53.663Z,2604
2017-11-17T08:52:54.189Z,2592
2017-11-17T08:53:54.432Z,2608
2017-11-17T08:54:54.141Z,2636
2017-11-17T08:55:54.396Z,2648
2017-11-17T08:56:54.102Z,2648
2017-11-17T08:57:54.364Z,2660
2017-11-17T08:58:54.072Z,2680
2017-11-17T08:59:54.048Z,2696
2017-11-17T09:00:54.295Z,2712
2017-11-17T09:01:54.274Z,2732
2017-11-17T09:02:53.988Z,2744
2017-11-17T09:03:53.980Z,2768
2017-11-17T09:04:54.224Z,2812
2017-11-17T09:05:53.658Z,2868
2017-11-17T09:06:53.907Z,2928
2017-11-17T09:07:53.621Z,2968
2017-11-17T09:08:53.596Z,3016
2017-11-17T09:09:53.581Z,3028
2017-11-17T09:10:53.831Z,3052
2017-11-17T09:11:53.547Z,3084
2017-11-17T09:12:53.518Z,3116
2017-11-17T09:13:53.494Z,3192
2017-11-17T09:14:53.753Z,3296
2017-11-17T09:15:53.993Z,3496
2017-11-17T09:16:53.437Z,3700
2017-11-17T09:17:53.964Z,5624
2017-11-17T09:18:53.951Z,5780
2017-11-17T09:19:53.658Z,4048
2017-11-17T09:20:53.631Z,3652
2017-11-17T09:21:53.347Z,3876
2017-11-17T09:22:53.594Z,4460
2017-11-17T09:23:53.576Z,5892
2017-11-17T09:24:53.836Z,8340
2017-11-17T09:25:53.294Z,9452
2017-11-17T09:26:53.248Z,9860
2017-11-17T09:27:53.507Z,7232
2017-11-17T09:28:53.764Z,4152
2017-11-17T09:29:53.734Z,3852
2017-11-17T09:30:53.462Z,3788
2017-11-17T09:31:53.437Z,3724
2017-11-17T09:32:53.476Z,3696
2017-11-17T09:33:52.852Z,3736
2017-11-17T09:34:52.840Z,5272
2017-11-17T09:35:53.375Z,7160
2017-11-17T09:36:53.342Z,9060
2017-11-17T09:37:53.604Z,9476
2017-11-17T09:38:53.582Z,8296
2017-11-17T09:39:53.293Z,8644
2017-11-17T09:40:53.007Z,7960
2017-11-17T09:41:53.257Z,6988
2017-11-17T09:42:52.974Z,6752
2017-11-17T09:43:53.233Z,7384
2017-11-17T09:44:53.481Z,7880
2017-11-17T09:45:53.201Z,6864
2017-11-17T09:46:52.905Z,6760
2017-11-17T09:47:53.152Z,6384
2017-11-17T09:48:53.425Z,5776
2017-11-17T09:49:53.143Z,5116
2017-11-17T09:50:53.420Z,4780
2017-11-17T09:51:52.836Z,4808
2017-11-17T09:52:52.823Z,4964
2017-11-17T09:53:53.062Z,5444
2017-11-17T09:54:53.059Z,7052
2017-11-17T09:55:52.501Z,8340
2017-11-17T09:56:52.479Z,7732
2017-11-17T09:57:53.278Z,7632
2017-11-17T09:58:52.916Z,7292
2017-11-17T09:59:52.703Z,7364
2017-11-17T10:00:52.960Z,9424
2017-11-17T10:01:52.672Z,10620
2017-11-17T10:02:53.202Z,8132
2017-11-17T10:03:52.933Z,6664
2017-11-17T10:04:52.633Z,6804
2017-11-17T10:05:52.889Z,8012
2017-11-17T10:06:53.145Z,7240
2017-11-17T10:07:53.147Z,7408
2017-11-17T10:08:53.128Z,8016
2017-11-17T10:09:53.105Z,9204
2017-11-17T10:10:52.550Z,11288
2017-11-17T10:11:52.269Z,13852
2017-11-17T10:12:53.083Z,13416
2017-11-17T10:13:52.828Z,11260
2017-11-17T10:14:52.497Z,12720
2017-11-17T10:15:53.022Z,12768
2017-11-17T10:16:52.746Z,12716
2017-11-17T10:17:52.725Z,12292
2017-11-17T10:18:52.979Z,10160
2017-11-17T10:19:52.440Z,7212
2017-11-17T10:20:52.435Z,7016
2017-11-17T10:21:52.430Z,8344
2017-11-17T10:22:52.674Z,6908
2017-11-17T10:23:52.657Z,5484
2017-11-17T10:24:52.651Z,6916
2017-11-17T10:25:52.621Z,10296
2017-11-17T10:26:52.379Z,8308
2017-11-17T10:27:52.874Z,5276
2017-11-17T10:28:52.585Z,8880
2017-11-17T10:29:52.578Z,15772
2017-11-17T10:30:52.564Z,12764
2017-11-17T10:31:52.844Z,10672
2017-11-17T10:32:52.821Z,10792
2017-11-17T10:33:52.802Z,9512
2017-11-17T10:34:52.517Z,8880
2017-11-17T10:35:52.231Z,8948
2017-11-17T10:36:52.226Z,9716
2017-11-17T10:37:52.483Z,10420
2017-11-17T10:38:52.742Z,9108
2017-11-17T10:39:52.191Z,10208
2017-11-17T10:40:52.447Z,10392
2017-11-17T10:41:52.433Z,10632
2017-11-17T10:42:52.156Z,10920
2017-11-17T10:43:52.420Z,11172
2017-11-17T10:44:52.406Z,9436
2017-11-17T10:45:52.381Z,8180
2017-11-17T10:46:52.381Z,8392
2017-11-17T10:47:52.386Z,8972
2017-11-17T10:48:52.092Z,12320
2017-11-17T10:49:52.076Z,14616
2017-11-17T10:50:52.334Z,19424
2017-11-17T10:51:51.782Z,20608
2017-11-17T10:52:52.319Z,14416
2017-11-17T10:53:52.295Z,9376
2017-11-17T10:54:52.568Z,9504
2017-11-17T10:55:51.749Z,12280
2017-11-17T10:56:52.004Z,13056
2017-11-17T10:57:52.526Z,12880
2017-11-17T10:58:52.251Z,12464
2017-11-17T10:59:52.247Z,10876
2017-11-17T11:00:52.227Z,9828
2017-11-17T11:01:52.221Z,11832
2017-11-17T11:02:52.212Z,15352
2017-11-17T11:03:52.202Z,21376
2017-11-17T11:04:52.474Z,24672
2017-11-17T11:05:51.912Z,23680
2017-11-17T11:06:51.903Z,17780
2017-11-17T11:07:51.894Z,12512
2017-11-17T11:08:51.613Z,12084
2017-11-17T11:09:52.154Z,12292
2017-11-17T11:10:52.139Z,11200
2017-11-17T11:11:52.133Z,11592
2017-11-17T11:12:52.395Z,11052
2017-11-17T11:13:52.111Z,9616
2017-11-17T11:14:51.824Z,10556
2017-11-17T11:15:52.086Z,9172
2017-11-17T11:16:52.078Z,6032
2017-11-17T11:17:52.067Z,5136
2017-11-17T11:18:51.785Z,4912
2017-11-17T11:19:52.050Z,4864
2017-11-17T11:20:52.037Z,4844
2017-11-17T11:21:51.757Z,4780
2017-11-17T11:22:51.476Z,4712
2017-11-17T11:23:52.009Z,4688
2017-11-17T11:24:52.003Z,4676
2017-11-17T11:25:51.987Z,4672
2017-11-17T11:26:51.434Z,4668
2017-11-17T11:27:51.958Z,4672
2017-11-17T11:28:51.954Z,4688
2017-11-17T11:29:52.213Z,4724
2017-11-17T11:30:51.944Z,4756
2017-11-17T11:31:51.378Z,4780
2017-11-17T11:32:51.908Z,4808
2017-11-17T11:33:51.628Z,4828
2017-11-17T11:34:51.877Z,4856
2017-11-17T11:35:52.140Z,4920
2017-11-17T11:36:51.585Z,4988
2017-11-17T11:37:51.845Z,5096
2017-11-17T11:38:51.558Z,5184
2017-11-17T11:39:51.819Z,5268
2017-11-17T11:40:51.812Z,5316
2017-11-17T11:41:51.795Z,5392
2017-11-17T11:42:51.791Z,5516
2017-11-17T11:43:51.233Z,5684
2017-11-17T11:44:51.219Z,5984
2017-11-17T11:45:52.011Z,6244
2017-11-17T11:46:51.467Z,6348
2017-11-17T11:47:51.756Z,6628
2017-11-17T11:48:51.459Z,7532
2017-11-17T11:49:51.697Z,10540
2017-11-17T11:50:51.419Z,16660
2017-11-17T11:51:51.665Z,24416
2017-11-17T11:52:51.396Z,27200
2017-11-17T11:53:51.107Z,26592
2017-11-17T11:54:51.361Z,26368
2017-11-17T11:55:51.912Z,26880
2017-11-17T11:56:51.597Z,27776
2017-11-17T11:57:51.318Z,27424
2017-11-17T11:58:51.715Z,27232
2017-11-17T11:59:51.030Z,27200
2017-11-17T12:00:51.827Z,27296
2017-11-17T12:01:51.823Z,27040
2017-11-17T12:02:51.268Z,26112
2017-11-17T12:03:51.826Z,12024
2017-11-17T12:04:51.797Z,9496
2017-11-17T12:05:51.525Z,8296
2017-11-17T12:06:51.526Z,7388
2017-11-17T12:07:51.230Z,7144
2017-11-17T12:08:51.495Z,7152
2017-11-17T12:09:51.491Z,8080
2017-11-17T12:10:51.492Z,10516
2017-11-17T12:11:51.197Z,23840
2017-11-17T12:12:51.741Z,15360
2017-11-17T12:13:51.771Z,16384
2017-11-17T12:14:50.907Z,15392
2017-11-17T12:15:50.895Z,10632
2017-11-17T12:16:51.704Z,11872
2017-11-17T12:17:51.420Z,21984
2017-11-17T12:18:51.684Z,25248
2017-11-17T12:19:51.135Z,25344
2017-11-17T12:20:51.250Z,24416
2017-11-17T12:21:51.394Z,23040
2017-11-17T12:22:51.117Z,21632
2017-11-17T12:23:51.388Z,21056
2017-11-17T12:24:51.108Z,20800
2017-11-17T12:25:51.640Z,21056
2017-11-17T12:26:51.371Z,21184
2017-11-17T12:27:51.090Z,21408
2017-11-17T12:28:51.341Z,21536
2017-11-17T12:29:51.633Z,21728
2017-11-17T12:30:51.381Z,21152
2017-11-17T12:31:51.063Z,20128
2017-11-17T12:32:51.063Z,19424
2017-11-17T12:33:51.049Z,19360
2017-11-17T12:34:51.059Z,19648
2017-11-17T12:35:51.089Z,18240
2017-11-17T12:36:51.301Z,19392
2017-11-17T12:37:51.032Z,18784
2017-11-17T12:38:51.299Z,18464
2017-11-17T12:39:51.291Z,18336
2017-11-17T12:40:51.313Z,19072
2017-11-17T12:41:51.020Z,20096
2017-11-17T12:42:51.282Z,4504
2017-11-17T12:43:50.742Z,4620
2017-11-17T12:44:51.274Z,6884
2017-11-17T12:45:51.095Z,7124
2017-11-17T12:46:51.540Z,20704
2017-11-17T12:47:50.990Z,21472
2017-11-17T12:48:51.263Z,22176
2017-11-17T12:49:50.977Z,21760
2017-11-17T12:50:50.984Z,15660
2017-11-17T12:51:51.242Z,23424
2017-11-17T12:52:50.966Z,22496
2017-11-17T12:53:51.233Z,21344
2017-11-17T12:54:51.226Z,6744
2017-11-17T12:55:51.227Z,12848
2017-11-17T12:56:50.948Z,9844
2017-11-17T12:57:50.677Z,6116
2017-11-17T12:58:50.942Z,6240
2017-11-17T12:59:51.218Z,5964
2017-11-17T13:00:50.931Z,6424
2017-11-17T13:01:51.469Z,11012
2017-11-17T13:02:51.477Z,6088
2017-11-17T13:03:51.457Z,6132
2017-11-17T13:04:50.917Z,6264
2017-11-17T13:05:51.474Z,6500
2017-11-17T13:06:50.896Z,6784
2017-11-17T13:07:51.167Z,7656
2017-11-17T13:08:50.610Z,18656
2017-11-17T13:09:50.879Z,18688
2017-11-17T13:10:51.142Z,18976
2017-11-17T13:11:51.145Z,19840
2017-11-17T13:12:50.860Z,20640
2017-11-17T13:13:50.854Z,21120
2017-11-17T13:14:51.113Z,21600
2017-11-17T13:15:51.113Z,20704
2017-11-17T13:16:51.108Z,18528
2017-11-17T13:17:51.102Z,9368
2017-11-17T13:18:50.824Z,9096
2017-11-17T13:19:50.822Z,9024
2017-11-17T13:20:51.355Z,18304
2017-11-17T13:21:51.068Z,19552
2017-11-17T13:22:50.798Z,19840
2017-11-17T13:23:51.345Z,16512
2017-11-17T13:24:51.053Z,9980
2017-11-17T13:25:50.798Z,19264
2017-11-17T13:26:50.773Z,19904
2017-11-17T13:27:50.499Z,19296
2017-11-17T13:28:51.053Z,18208
2017-11-17T13:29:50.764Z,16928
2017-11-17T13:30:51.299Z,16000
2017-11-17T13:31:51.011Z,15168
2017-11-17T13:32:51.009Z,14232
2017-11-17T13:33:51.007Z,13716
2017-11-17T13:34:50.451Z,10484
2017-11-17T13:35:50.988Z,6152
2017-11-17T13:36:50.720Z,4816
2017-11-17T13:37:51.254Z,4504
2017-11-17T13:38:50.700Z,4288
2017-11-17T13:39:51.238Z,4092
2017-11-17T13:40:50.966Z,3960
2017-11-17T13:41:50.950Z,3840
2017-11-17T13:42:50.684Z,3732
2017-11-17T13:43:50.939Z,3644
2017-11-17T13:44:51.215Z,3568
2017-11-17T13:45:50.938Z,3532
2017-11-17T13:46:50.923Z,3500
2017-11-17T13:47:51.197Z,3616
2017-11-17T13:48:50.639Z,3696
2017-11-17T13:49:50.906Z,3652
2017-11-17T13:50:50.628Z,3576
2017-11-17T13:51:50.671Z,3480
2017-11-17T13:52:50.604Z,3432
2017-11-17T13:53:50.869Z,3432
2017-11-17T13:54:51.130Z,3416